Holly, Washington
Current Conditions -  °F | °C
As of 4:55 PM on Sunday 21 Dec 2014 (Local Time) from KPWT Reporting Station
Clear Clear  
Wind Chill: 45°   Ceiling: Unl
Heat Index: 48°   Visibility: 10mi
Dew Point: 46°   Wind: 8mph
Humidity: 93%   Direction: 200°SSW
Pressure: 30.03"   Gusts: NA
Location:  47.5691°N, 122.818°W
Report Text: KPWT 220055Z AUTO 20007KT 10SM CLR 09/08 A3003 RMK AO1
Loading
Personal Weather Stations






























Interactive Weather Map New forecast layout! Learn more

10-Day Weather Forecast

Advertisements
Track Severe Weather on mobile